»·PEaware :: N3433Q KBUR-KSAN

N3433Q :: KBUR-KSAN

FLIGHT INFORMATION

Flight Status: Arrived
Operator: Privately registered:
United States
More flights under this callsign
Pilot: Jeremy H. (10741)
Aircraft: Diamond DA-62
(DA62)
More flights by this aircraft type
Origin: KBUR Bob Hope-Burbank
United States
Destination: KSAN San Diego Intl-Lindbergh
United States
More flights between these airports :: More routes between these airports
Route: ELMOO9 ELMOO V186 HAILE V66 MZB
File this flight plan on PilotEdge
Remarks:
Altitude:
(Current/Filed)
9,000ft
Speed:
(Current/Filed)
171kts
Departed: 29-Nov-23 02:12 PM
Arrived: 29-Nov-23 03:06 PM
Distance/Time
Traveled:
106nm/0:53
Distance/Time
To Go:
Arrived

Flight Plot

Page will automatically refresh every two minutes.

Flight plan parsing failed; only flown route is shown


Map Options




Map Legend


Flown Route
Filed Route
Departure Airport
Arrival Airport
Navaid (VOR, NDB)
Fix

Horizontal Profiles

Position Reports

Time Latitude Longitude Heading Altitude Ground
Speed
29-Nov-23 13:51 34.200311 -118.365153 91 697ft 0kts
29-Nov-23 13:52 34.200311 -118.365153 91 697ft 0kts
29-Nov-23 13:53 34.200311 -118.365153 91 697ft 0kts
29-Nov-23 13:54 34.200311 -118.365153 91 697ft 0kts
29-Nov-23 13:55 34.200311 -118.365153 91 697ft 0kts
29-Nov-23 13:56 34.200311 -118.365153 91 697ft 0kts
29-Nov-23 13:57 34.200311 -118.365153 91 697ft 0kts
29-Nov-23 13:58 34.200311 -118.365153 91 697ft 0kts
29-Nov-23 13:59 34.200311 -118.365153 91 697ft 0kts
29-Nov-23 14:00 34.200311 -118.365153 91 697ft 0kts
29-Nov-23 14:01 34.200311 -118.365153 91 697ft 0kts
29-Nov-23 14:02 34.200311 -118.365153 91 697ft 0kts
29-Nov-23 14:03 34.200311 -118.365153 91 697ft 0kts
29-Nov-23 14:04 34.199219 -118.364480 154 704ft 10kts
29-Nov-23 14:05 34.198882 -118.359205 89 695ft 20kts
29-Nov-23 14:06 34.202126 -118.358797 348 704ft 19kts
29-Nov-23 14:07 34.206188 -118.359909 348 731ft 13kts
29-Nov-23 14:08 34.210292 -118.361030 348 761ft 12kts
29-Nov-23 14:09 34.211980 -118.361326 38 769ft 0kts
29-Nov-23 14:10 34.211898 -118.360339 165 767ft 0kts
29-Nov-23 14:11 34.196585 -118.356427 165 1388ft 98kts
29-Nov-23 14:12 34.177303 -118.331461 117 2902ft 110kts
29-Nov-23 14:13 34.164623 -118.296564 106 4323ft 123kts
29-Nov-23 14:14 34.150476 -118.251107 113 4962ft 165kts
29-Nov-23 14:15 34.134595 -118.196440 109 4964ft 175kts
29-Nov-23 14:16 34.117101 -118.141361 109 5001ft 177kts
29-Nov-23 14:17 34.101212 -118.085712 109 4995ft 176kts
29-Nov-23 14:18 34.086163 -118.029490 107 5326ft 182kts
29-Nov-23 14:19 34.069883 -117.974615 93 6049ft 163kts
29-Nov-23 14:20 34.074487 -117.920957 82 6930ft 161kts
29-Nov-23 14:21 34.077572 -117.861856 89 7000ft 181kts
29-Nov-23 14:22 34.075229 -117.800702 108 6947ft 183kts
29-Nov-23 14:23 34.045554 -117.752459 132 6984ft 180kts
29-Nov-23 14:24 34.016024 -117.703567 122 7009ft 180kts
29-Nov-23 14:25 33.989026 -117.652501 122 6987ft 179kts
29-Nov-23 14:26 33.961087 -117.604543 133 6992ft 172kts
29-Nov-23 14:27 33.929965 -117.560864 112 6964ft 172kts
29-Nov-23 14:28 33.903592 -117.518284 149 7661ft 149kts
29-Nov-23 14:30 33.867556 -117.487381 146 8424ft 168kts
29-Nov-23 14:31 33.828337 -117.453357 146 8974ft 188kts
29-Nov-23 14:32 33.784768 -117.417561 148 8981ft 186kts
29-Nov-23 14:33 33.741531 -117.385174 149 8988ft 182kts
29-Nov-23 14:34 33.701615 -117.347437 145 8984ft 183kts
29-Nov-23 14:35 33.659997 -117.312638 150 8971ft 182kts
29-Nov-23 14:36 33.617331 -117.280998 150 8987ft 180kts
29-Nov-23 14:37 33.576962 -117.245004 146 8966ft 180kts
29-Nov-23 14:38 33.536143 -117.210462 148 8987ft 180kts
29-Nov-23 14:39 33.494890 -117.176573 148 8977ft 179kts
29-Nov-23 14:40 33.449913 -117.155966 171 9002ft 175kts
29-Nov-23 14:41 33.401779 -117.145673 173 8993ft 175kts
29-Nov-23 14:42 33.353659 -117.135472 171 8978ft 175kts
29-Nov-23 14:43 33.305990 -117.125587 172 8993ft 172kts
29-Nov-23 14:44 33.259054 -117.111130 150 8642ft 183kts
29-Nov-23 14:45 33.215593 -117.082507 151 7543ft 180kts
29-Nov-23 14:46 33.173673 -117.057503 150 6990ft 160kts
29-Nov-23 14:47 33.133510 -117.033864 150 7012ft 160kts
29-Nov-23 14:48 33.092818 -117.009806 152 6983ft 163kts
29-Nov-23 14:49 33.051492 -116.985519 150 6440ft 168kts
29-Nov-23 14:50 33.010886 -116.961960 150 5508ft 153kts
29-Nov-23 14:51 32.973891 -116.938449 152 4966ft 149kts
29-Nov-23 14:52 32.937325 -116.916602 150 5015ft 146kts
29-Nov-23 14:53 32.900517 -116.893965 150 4998ft 148kts
29-Nov-23 14:53 32.870416 -116.875509 152 4983ft 144kts
29-Nov-23 14:55 32.825604 -116.869895 192 4955ft 146kts
29-Nov-23 14:56 32.784418 -116.881643 192 4980ft 157kts
29-Nov-23 14:57 32.740722 -116.894197 191 4688ft 168kts
29-Nov-23 14:57 32.702459 -116.903899 192 3927ft 169kts
29-Nov-23 14:58 32.663525 -116.923661 234 3066ft 167kts
29-Nov-23 14:59 32.670380 -116.972459 289 1949ft 158kts
29-Nov-23 15:01 32.685002 -117.025419 293 1650ft 144kts
29-Nov-23 15:02 32.698389 -117.071095 284 1373ft 145kts
29-Nov-23 15:02 32.706609 -117.108053 285 1282ft 128kts
29-Nov-23 15:03 32.722416 -117.146709 299 1190ft 136kts
29-Nov-23 15:04 32.732455 -117.184863 281 19ft 69kts
29-Nov-23 15:05 32.734660 -117.190631 41 16ft 0kts
29-Nov-23 15:06 32.734660 -117.190631 41 16ft 0kts
29-Nov-23 15:07 32.734165 -117.187329 103 15ft 17kts
29-Nov-23 15:08 32.732652 -117.181130 103 17ft 16kts
29-Nov-23 15:09 32.733956 -117.179695 281 20ft 0kts
29-Nov-23 15:10 32.733956 -117.179695 281 20ft 0kts
29-Nov-23 15:11 32.733956 -117.179695 281 20ft 0kts

Navigation Log

Ident Type
Flight plan parsing failed, navigation log unavailable